sensor_id;sensor_type;location;lat;lon;timestamp;P1;durP1;ratioP1;P2;durP2;ratioP2
3309;SDS011;1667;53.238;10.394;2023-06-14T00:03:03;3.40;;;3.10;;
3309;SDS011;1667;53.238;10.394;2023-06-14T00:08:02;4.00;;;3.10;;
3309;SDS011;1667;53.238;10.394;2023-06-14T00:13:04;4.40;;;2.90;;
3309;SDS011;1667;53.238;10.394;2023-06-14T00:18:05;5.03;;;3.20;;
3309;SDS011;1667;53.238;10.394;2023-06-14T00:23:04;5.20;;;2.70;;
3309;SDS011;1667;53.238;10.394;2023-06-14T00:28:02;5.60;;;3.30;;
3309;SDS011;1667;53.238;10.394;2023-06-14T00:33:01;4.17;;;3.00;;
3309;SDS011;1667;53.238;10.394;2023-06-14T00:38:01;3.20;;;2.83;;
3309;SDS011;1667;53.238;10.394;2023-06-14T00:43:00;4.80;;;2.80;;
3309;SDS011;1667;53.238;10.394;2023-06-14T00:47:58;7.90;;;3.50;;
3309;SDS011;1667;53.238;10.394;2023-06-14T00:52:58;6.13;;;2.90;;
3309;SDS011;1667;53.238;10.394;2023-06-14T00:57:59;6.20;;;2.90;;
3309;SDS011;1667;53.238;10.394;2023-06-14T01:02:58;3.07;;;2.80;;
3309;SDS011;1667;53.238;10.394;2023-06-14T01:08:03;4.60;;;3.60;;
3309;SDS011;1667;53.238;10.394;2023-06-14T01:13:12;6.27;;;3.73;;
3309;SDS011;1667;53.238;10.394;2023-06-14T01:18:17;3.40;;;3.10;;
3309;SDS011;1667;53.238;10.394;2023-06-14T01:23:18;6.47;;;3.30;;
3309;SDS011;1667;53.238;10.394;2023-06-14T01:28:18;9.50;;;3.07;;
3309;SDS011;1667;53.238;10.394;2023-06-14T01:33:18;3.67;;;3.00;;
3309;SDS011;1667;53.238;10.394;2023-06-14T01:38:20;4.07;;;3.03;;
3309;SDS011;1667;53.238;10.394;2023-06-14T01:43:21;7.00;;;2.97;;
3309;SDS011;1667;53.238;10.394;2023-06-14T01:48:22;6.23;;;3.30;;
3309;SDS011;1667;53.238;10.394;2023-06-14T01:53:22;5.10;;;2.90;;
3309;SDS011;1667;53.238;10.394;2023-06-14T01:58:20;3.80;;;3.10;;
3309;SDS011;1667;53.238;10.394;2023-06-14T02:03:20;5.07;;;3.00;;
3309;SDS011;1667;53.238;10.394;2023-06-14T02:08:22;2.67;;;2.47;;
3309;SDS011;1667;53.238;10.394;2023-06-14T02:13:21;3.17;;;2.43;;
3309;SDS011;1667;53.238;10.394;2023-06-14T02:18:20;4.63;;;3.27;;
3309;SDS011;1667;53.238;10.394;2023-06-14T02:23:19;5.53;;;3.03;;
3309;SDS011;1667;53.238;10.394;2023-06-14T02:28:18;3.87;;;2.87;;
3309;SDS011;1667;53.238;10.394;2023-06-14T02:33:17;4.60;;;3.10;;
3309;SDS011;1667;53.238;10.394;2023-06-14T02:38:15;4.67;;;3.90;;
3309;SDS011;1667;53.238;10.394;2023-06-14T02:43:14;3.47;;;3.13;;
3309;SDS011;1667;53.238;10.394;2023-06-14T02:48:15;5.27;;;3.30;;
3309;SDS011;1667;53.238;10.394;2023-06-14T02:53:14;4.60;;;2.83;;
3309;SDS011;1667;53.238;10.394;2023-06-14T02:58:13;4.43;;;3.43;;
3309;SDS011;1667;53.238;10.394;2023-06-14T03:03:13;4.23;;;3.20;;
3309;SDS011;1667;53.238;10.394;2023-06-14T03:08:20;8.07;;;3.57;;
3309;SDS011;1667;53.238;10.394;2023-06-14T03:13:26;4.63;;;3.17;;
3309;SDS011;1667;53.238;10.394;2023-06-14T03:18:30;5.37;;;2.77;;
3309;SDS011;1667;53.238;10.394;2023-06-14T03:23:34;6.00;;;3.30;;
3309;SDS011;1667;53.238;10.394;2023-06-14T03:28:33;6.67;;;3.83;;
3309;SDS011;1667;53.238;10.394;2023-06-14T03:33:33;11.03;;;3.60;;
3309;SDS011;1667;53.238;10.394;2023-06-14T03:38:32;5.30;;;3.33;;
3309;SDS011;1667;53.238;10.394;2023-06-14T03:43:33;6.37;;;3.43;;
3309;SDS011;1667;53.238;10.394;2023-06-14T03:48:31;8.47;;;4.93;;
3309;SDS011;1667;53.238;10.394;2023-06-14T03:53:31;5.07;;;4.03;;
3309;SDS011;1667;53.238;10.394;2023-06-14T03:58:40;6.97;;;3.90;;
3309;SDS011;1667;53.238;10.394;2023-06-14T04:03:40;10.03;;;4.00;;
3309;SDS011;1667;53.238;10.394;2023-06-14T04:08:40;4.43;;;4.00;;
3309;SDS011;1667;53.238;10.394;2023-06-14T04:13:38;6.77;;;3.67;;
3309;SDS011;1667;53.238;10.394;2023-06-14T04:18:37;5.67;;;3.87;;
3309;SDS011;1667;53.238;10.394;2023-06-14T04:23:37;5.90;;;3.90;;
3309;SDS011;1667;53.238;10.394;2023-06-14T04:28:36;6.00;;;4.57;;
3309;SDS011;1667;53.238;10.394;2023-06-14T04:33:39;10.13;;;4.13;;
3309;SDS011;1667;53.238;10.394;2023-06-14T04:38:49;7.77;;;3.93;;
3309;SDS011;1667;53.238;10.394;2023-06-14T04:43:53;8.20;;;3.80;;
3309;SDS011;1667;53.238;10.394;2023-06-14T04:48:54;11.03;;;4.50;;
3309;SDS011;1667;53.238;10.394;2023-06-14T04:53:54;4.47;;;4.00;;
3309;SDS011;1667;53.238;10.394;2023-06-14T04:58:56;8.47;;;4.80;;
3309;SDS011;1667;53.238;10.394;2023-06-14T05:03:55;6.90;;;5.17;;
3309;SDS011;1667;53.238;10.394;2023-06-14T05:08:55;8.27;;;4.60;;
3309;SDS011;1667;53.238;10.394;2023-06-14T05:13:54;6.17;;;3.97;;
3309;SDS011;1667;53.238;10.394;2023-06-14T05:18:56;7.40;;;4.27;;
3309;SDS011;1667;53.238;10.394;2023-06-14T05:23:57;6.97;;;4.30;;
3309;SDS011;1667;53.238;10.394;2023-06-14T05:28:56;7.03;;;4.30;;
3309;SDS011;1667;53.238;10.394;2023-06-14T05:33:55;7.07;;;4.90;;
3309;SDS011;1667;53.238;10.394;2023-06-14T05:38:53;4.40;;;3.70;;
3309;SDS011;1667;53.238;10.394;2023-06-14T05:43:56;5.73;;;4.10;;
3309;SDS011;1667;53.238;10.394;2023-06-14T05:48:55;6.23;;;4.30;;
3309;SDS011;1667;53.238;10.394;2023-06-14T05:53:53;7.03;;;3.73;;
3309;SDS011;1667;53.238;10.394;2023-06-14T05:58:52;4.77;;;2.80;;
3309;SDS011;1667;53.238;10.394;2023-06-14T06:03:52;4.90;;;3.70;;
3309;SDS011;1667;53.238;10.394;2023-06-14T06:08:51;10.00;;;3.13;;
3309;SDS011;1667;53.238;10.394;2023-06-14T06:13:50;5.83;;;4.60;;
3309;SDS011;1667;53.238;10.394;2023-06-14T06:18:48;5.53;;;3.00;;
3309;SDS011;1667;53.238;10.394;2023-06-14T06:23:48;3.50;;;3.20;;
3309;SDS011;1667;53.238;10.394;2023-06-14T06:28:47;4.67;;;3.43;;
3309;SDS011;1667;53.238;10.394;2023-06-14T06:33:45;6.40;;;2.87;;
3309;SDS011;1667;53.238;10.394;2023-06-14T06:38:44;3.93;;;3.03;;
3309;SDS011;1667;53.238;10.394;2023-06-14T06:43:44;4.30;;;2.97;;
3309;SDS011;1667;53.238;10.394;2023-06-14T06:48:45;4.03;;;2.90;;
3309;SDS011;1667;53.238;10.394;2023-06-14T06:53:51;4.73;;;3.37;;
3309;SDS011;1667;53.238;10.394;2023-06-14T06:58:52;2.87;;;2.57;;
3309;SDS011;1667;53.238;10.394;2023-06-14T07:03:50;3.17;;;2.87;;
3309;SDS011;1667;53.238;10.394;2023-06-14T07:08:49;3.20;;;2.90;;
3309;SDS011;1667;53.238;10.394;2023-06-14T07:13:47;4.90;;;2.90;;
3309;SDS011;1667;53.238;10.394;2023-06-14T07:18:47;2.27;;;2.17;;
3309;SDS011;1667;53.238;10.394;2023-06-14T07:23:46;3.40;;;2.20;;
3309;SDS011;1667;53.238;10.394;2023-06-14T07:28:44;3.07;;;2.60;;
3309;SDS011;1667;53.238;10.394;2023-06-14T07:33:43;3.43;;;2.63;;
3309;SDS011;1667;53.238;10.394;2023-06-14T07:38:43;2.23;;;2.13;;
3309;SDS011;1667;53.238;10.394;2023-06-14T07:43:41;2.17;;;2.07;;
3309;SDS011;1667;53.238;10.394;2023-06-14T07:48:40;2.57;;;2.10;;
3309;SDS011;1667;53.238;10.394;2023-06-14T07:53:39;2.50;;;2.30;;
3309;SDS011;1667;53.238;10.394;2023-06-14T07:58:40;2.40;;;2.13;;
3309;SDS011;1667;53.238;10.394;2023-06-14T08:03:38;2.57;;;2.33;;
3309;SDS011;1667;53.238;10.394;2023-06-14T08:08:37;5.90;;;2.57;;
3309;SDS011;1667;53.238;10.394;2023-06-14T08:13:35;3.83;;;2.47;;
3309;SDS011;1667;53.238;10.394;2023-06-14T08:18:35;5.13;;;2.70;;
3309;SDS011;1667;53.238;10.394;2023-06-14T08:23:34;4.27;;;3.00;;
3309;SDS011;1667;53.238;10.394;2023-06-14T08:28:33;3.50;;;2.80;;
3309;SDS011;1667;53.238;10.394;2023-06-14T08:33:31;2.60;;;2.40;;
3309;SDS011;1667;53.238;10.394;2023-06-14T08:38:33;2.50;;;2.30;;
3309;SDS011;1667;53.238;10.394;2023-06-14T08:43:31;3.37;;;3.07;;
3309;SDS011;1667;53.238;10.394;2023-06-14T08:48:30;5.73;;;3.40;;
3309;SDS011;1667;53.238;10.394;2023-06-14T08:53:30;5.50;;;3.50;;
3309;SDS011;1667;53.238;10.394;2023-06-14T08:58:34;2.90;;;2.53;;
3309;SDS011;1667;53.238;10.394;2023-06-14T09:03:34;3.60;;;3.30;;
3309;SDS011;1667;53.238;10.394;2023-06-14T09:08:37;6.03;;;2.90;;
3309;SDS011;1667;53.238;10.394;2023-06-14T09:13:38;3.57;;;3.27;;
3309;SDS011;1667;53.238;10.394;2023-06-14T09:18:37;4.53;;;3.30;;
3309;SDS011;1667;53.238;10.394;2023-06-14T09:23:38;3.37;;;3.07;;
3309;SDS011;1667;53.238;10.394;2023-06-14T09:28:42;3.60;;;2.80;;
3309;SDS011;1667;53.238;10.394;2023-06-14T09:33:41;8.47;;;2.80;;
3309;SDS011;1667;53.238;10.394;2023-06-14T09:38:51;3.00;;;2.70;;
3309;SDS011;1667;53.238;10.394;2023-06-14T09:43:52;3.90;;;3.60;;
3309;SDS011;1667;53.238;10.394;2023-06-14T09:48:54;4.30;;;2.77;;
3309;SDS011;1667;53.238;10.394;2023-06-14T09:53:53;3.83;;;2.40;;
3309;SDS011;1667;53.238;10.394;2023-06-14T09:58:57;3.10;;;2.80;;
3309;SDS011;1667;53.238;10.394;2023-06-14T10:04:04;3.53;;;3.23;;
3309;SDS011;1667;53.238;10.394;2023-06-14T10:09:08;2.70;;;2.50;;
3309;SDS011;1667;53.238;10.394;2023-06-14T10:14:08;3.50;;;2.70;;
3309;SDS011;1667;53.238;10.394;2023-06-14T10:19:11;4.37;;;3.27;;
3309;SDS011;1667;53.238;10.394;2023-06-14T10:24:15;3.20;;;2.90;;
3309;SDS011;1667;53.238;10.394;2023-06-14T10:29:17;3.73;;;2.93;;
3309;SDS011;1667;53.238;10.394;2023-06-14T10:34:22;3.27;;;2.90;;
3309;SDS011;1667;53.238;10.394;2023-06-14T10:39:21;4.10;;;2.93;;
3309;SDS011;1667;53.238;10.394;2023-06-14T10:49:40;3.93;;;2.90;;
3309;SDS011;1667;53.238;10.394;2023-06-14T11:01:36;5.93;;;3.23;;
3309;SDS011;1667;53.238;10.394;2023-06-14T11:06:44;6.03;;;3.40;;
3309;SDS011;1667;53.238;10.394;2023-06-14T11:11:44;3.00;;;2.77;;
3309;SDS011;1667;53.238;10.394;2023-06-14T11:16:49;3.70;;;2.90;;
3309;SDS011;1667;53.238;10.394;2023-06-14T11:21:48;3.73;;;2.83;;
3309;SDS011;1667;53.238;10.394;2023-06-14T11:26:47;4.37;;;2.70;;
3309;SDS011;1667;53.238;10.394;2023-06-14T11:31:48;2.87;;;2.50;;
3309;SDS011;1667;53.238;10.394;2023-06-14T11:36:47;4.20;;;3.00;;
3309;SDS011;1667;53.238;10.394;2023-06-14T11:41:45;4.63;;;2.57;;
3309;SDS011;1667;53.238;10.394;2023-06-14T11:46:44;3.70;;;2.97;;
3309;SDS011;1667;53.238;10.394;2023-06-14T11:51:44;3.17;;;2.87;;
3309;SDS011;1667;53.238;10.394;2023-06-14T11:56:43;4.40;;;3.00;;
3309;SDS011;1667;53.238;10.394;2023-06-14T12:01:42;9.10;;;2.40;;
3309;SDS011;1667;53.238;10.394;2023-06-14T12:06:42;4.03;;;2.73;;
3309;SDS011;1667;53.238;10.394;2023-06-14T12:11:41;2.73;;;2.53;;
3309;SDS011;1667;53.238;10.394;2023-06-14T12:16:40;4.93;;;2.77;;
3309;SDS011;1667;53.238;10.394;2023-06-14T12:21:39;3.90;;;2.40;;
3309;SDS011;1667;53.238;10.394;2023-06-14T12:26:39;4.40;;;3.27;;
3309;SDS011;1667;53.238;10.394;2023-06-14T12:31:39;4.83;;;3.13;;
3309;SDS011;1667;53.238;10.394;2023-06-14T12:36:38;2.67;;;2.43;;
3309;SDS011;1667;53.238;10.394;2023-06-14T12:41:42;2.70;;;2.50;;
3309;SDS011;1667;53.238;10.394;2023-06-14T12:46:41;2.87;;;2.60;;
3309;SDS011;1667;53.238;10.394;2023-06-14T12:51:40;5.83;;;2.50;;
3309;SDS011;1667;53.238;10.394;2023-06-14T12:56:39;3.77;;;2.60;;
3309;SDS011;1667;53.238;10.394;2023-06-14T13:01:39;4.40;;;2.70;;
3309;SDS011;1667;53.238;10.394;2023-06-14T13:06:38;4.07;;;2.13;;
3309;SDS011;1667;53.238;10.394;2023-06-14T13:11:38;2.83;;;2.57;;
3309;SDS011;1667;53.238;10.394;2023-06-14T13:16:36;2.67;;;2.47;;
3309;SDS011;1667;53.238;10.394;2023-06-14T13:21:36;2.80;;;2.60;;
3309;SDS011;1667;53.238;10.394;2023-06-14T13:26:34;5.07;;;2.83;;
3309;SDS011;1667;53.238;10.394;2023-06-14T13:31:33;2.83;;;2.57;;
3309;SDS011;1667;53.238;10.394;2023-06-14T13:36:32;4.10;;;2.70;;
3309;SDS011;1667;53.238;10.394;2023-06-14T13:41:32;2.83;;;2.50;;
3309;SDS011;1667;53.238;10.394;2023-06-14T13:46:31;2.90;;;2.60;;
3309;SDS011;1667;53.238;10.394;2023-06-14T13:51:30;8.57;;;2.53;;
3309;SDS011;1667;53.238;10.394;2023-06-14T13:56:31;3.43;;;2.53;;
3309;SDS011;1667;53.238;10.394;2023-06-14T14:01:31;2.47;;;2.23;;
3309;SDS011;1667;53.238;10.394;2023-06-14T14:06:30;6.63;;;2.47;;
3309;SDS011;1667;53.238;10.394;2023-06-14T14:11:28;4.13;;;2.60;;
3309;SDS011;1667;53.238;10.394;2023-06-14T14:16:31;3.60;;;2.23;;
3309;SDS011;1667;53.238;10.394;2023-06-14T14:21:30;4.20;;;2.60;;
3309;SDS011;1667;53.238;10.394;2023-06-14T14:26:28;3.33;;;3.03;;
3309;SDS011;1667;53.238;10.394;2023-06-14T14:31:27;3.27;;;2.60;;
3309;SDS011;1667;53.238;10.394;2023-06-14T14:36:27;2.77;;;2.53;;
3309;SDS011;1667;53.238;10.394;2023-06-14T14:41:27;4.23;;;2.77;;
3309;SDS011;1667;53.238;10.394;2023-06-14T14:46:26;3.07;;;2.77;;
3309;SDS011;1667;53.238;10.394;2023-06-14T14:51:26;4.10;;;2.77;;
3309;SDS011;1667;53.238;10.394;2023-06-14T14:56:25;5.93;;;2.80;;
3309;SDS011;1667;53.238;10.394;2023-06-14T15:01:24;2.97;;;2.77;;
3309;SDS011;1667;53.238;10.394;2023-06-14T15:06:22;3.47;;;2.87;;
3309;SDS011;1667;53.238;10.394;2023-06-14T15:11:22;4.60;;;2.73;;
3309;SDS011;1667;53.238;10.394;2023-06-14T15:16:20;4.50;;;2.60;;
3309;SDS011;1667;53.238;10.394;2023-06-14T15:21:19;3.30;;;2.70;;
3309;SDS011;1667;53.238;10.394;2023-06-14T15:26:19;3.07;;;2.87;;
3309;SDS011;1667;53.238;10.394;2023-06-14T15:31:19;3.00;;;2.80;;
3309;SDS011;1667;53.238;10.394;2023-06-14T15:36:19;6.33;;;2.77;;
3309;SDS011;1667;53.238;10.394;2023-06-14T15:41:18;5.70;;;2.77;;
3309;SDS011;1667;53.238;10.394;2023-06-14T15:46:17;6.73;;;3.00;;
3309;SDS011;1667;53.238;10.394;2023-06-14T15:51:20;3.77;;;2.77;;
3309;SDS011;1667;53.238;10.394;2023-06-14T15:56:18;5.70;;;2.63;;
3309;SDS011;1667;53.238;10.394;2023-06-14T16:01:17;4.20;;;3.00;;
3309;SDS011;1667;53.238;10.394;2023-06-14T16:06:17;3.03;;;2.73;;
3309;SDS011;1667;53.238;10.394;2023-06-14T16:11:15;3.50;;;2.90;;
3309;SDS011;1667;53.238;10.394;2023-06-14T16:16:14;3.53;;;2.73;;
3309;SDS011;1667;53.238;10.394;2023-06-14T16:21:12;2.43;;;2.23;;
3309;SDS011;1667;53.238;10.394;2023-06-14T16:26:14;4.87;;;2.60;;
3309;SDS011;1667;53.238;10.394;2023-06-14T16:31:13;3.80;;;2.47;;
3309;SDS011;1667;53.238;10.394;2023-06-14T16:36:13;3.57;;;2.17;;
3309;SDS011;1667;53.238;10.394;2023-06-14T16:41:13;2.83;;;2.57;;
3309;SDS011;1667;53.238;10.394;2023-06-14T16:46:13;5.77;;;2.63;;
3309;SDS011;1667;53.238;10.394;2023-06-14T16:51:12;5.77;;;2.67;;
3309;SDS011;1667;53.238;10.394;2023-06-14T16:56:10;3.70;;;2.70;;
3309;SDS011;1667;53.238;10.394;2023-06-14T17:01:10;3.57;;;2.70;;
3309;SDS011;1667;53.238;10.394;2023-06-14T17:06:09;3.67;;;2.50;;
3309;SDS011;1667;53.238;10.394;2023-06-14T17:11:07;3.20;;;2.17;;
3309;SDS011;1667;53.238;10.394;2023-06-14T17:16:06;3.10;;;2.20;;
3309;SDS011;1667;53.238;10.394;2023-06-14T17:21:06;4.63;;;3.13;;
3309;SDS011;1667;53.238;10.394;2023-06-14T17:26:04;2.33;;;2.13;;
3309;SDS011;1667;53.238;10.394;2023-06-14T17:31:03;2.47;;;2.27;;
3309;SDS011;1667;53.238;10.394;2023-06-14T17:36:01;3.33;;;2.50;;
3309;SDS011;1667;53.238;10.394;2023-06-14T17:41:02;2.53;;;2.00;;
3309;SDS011;1667;53.238;10.394;2023-06-14T17:46:05;4.40;;;2.67;;
3309;SDS011;1667;53.238;10.394;2023-06-14T17:51:04;2.90;;;2.27;;
3309;SDS011;1667;53.238;10.394;2023-06-14T17:56:04;6.17;;;3.03;;
3309;SDS011;1667;53.238;10.394;2023-06-14T18:01:03;7.10;;;3.03;;
3309;SDS011;1667;53.238;10.394;2023-06-14T18:06:02;4.23;;;1.97;;
3309;SDS011;1667;53.238;10.394;2023-06-14T18:11:01;4.03;;;2.30;;
3309;SDS011;1667;53.238;10.394;2023-06-14T18:16:01;2.70;;;2.50;;
3309;SDS011;1667;53.238;10.394;2023-06-14T18:20:59;4.37;;;1.93;;
3309;SDS011;1667;53.238;10.394;2023-06-14T18:25:58;2.47;;;1.80;;
3309;SDS011;1667;53.238;10.394;2023-06-14T18:30:57;2.30;;;2.10;;
3309;SDS011;1667;53.238;10.394;2023-06-14T18:35:57;3.57;;;2.00;;
3309;SDS011;1667;53.238;10.394;2023-06-14T18:40:57;3.97;;;1.90;;
3309;SDS011;1667;53.238;10.394;2023-06-14T18:45:55;3.90;;;2.17;;
3309;SDS011;1667;53.238;10.394;2023-06-14T18:50:54;3.70;;;2.23;;
3309;SDS011;1667;53.238;10.394;2023-06-14T18:55:53;2.60;;;2.40;;
3309;SDS011;1667;53.238;10.394;2023-06-14T19:00:52;2.30;;;2.10;;
3309;SDS011;1667;53.238;10.394;2023-06-14T19:05:51;5.53;;;2.40;;
3309;SDS011;1667;53.238;10.394;2023-06-14T19:10:53;3.70;;;1.93;;
3309;SDS011;1667;53.238;10.394;2023-06-14T19:15:52;2.93;;;1.93;;
3309;SDS011;1667;53.238;10.394;2023-06-14T19:20:50;4.27;;;2.30;;
3309;SDS011;1667;53.238;10.394;2023-06-14T19:25:49;3.47;;;2.03;;
3309;SDS011;1667;53.238;10.394;2023-06-14T19:30:49;3.97;;;2.00;;
3309;SDS011;1667;53.238;10.394;2023-06-14T19:35:47;4.50;;;2.60;;
3309;SDS011;1667;53.238;10.394;2023-06-14T19:40:46;5.03;;;3.03;;
3309;SDS011;1667;53.238;10.394;2023-06-14T19:45:45;3.83;;;2.50;;
3309;SDS011;1667;53.238;10.394;2023-06-14T19:50:46;5.87;;;2.77;;
3309;SDS011;1667;53.238;10.394;2023-06-14T19:55:47;3.00;;;2.30;;
3309;SDS011;1667;53.238;10.394;2023-06-14T20:00:46;3.03;;;1.80;;
3309;SDS011;1667;53.238;10.394;2023-06-14T20:05:46;3.30;;;1.67;;
3309;SDS011;1667;53.238;10.394;2023-06-14T20:10:45;3.13;;;2.10;;
3309;SDS011;1667;53.238;10.394;2023-06-14T20:15:44;4.50;;;2.40;;
3309;SDS011;1667;53.238;10.394;2023-06-14T20:20:42;4.43;;;2.37;;
3309;SDS011;1667;53.238;10.394;2023-06-14T20:25:42;2.30;;;2.10;;
3309;SDS011;1667;53.238;10.394;2023-06-14T20:30:45;2.83;;;2.60;;
3309;SDS011;1667;53.238;10.394;2023-06-14T20:35:43;3.80;;;2.70;;
3309;SDS011;1667;53.238;10.394;2023-06-14T20:40:43;3.70;;;2.17;;
3309;SDS011;1667;53.238;10.394;2023-06-14T20:45:44;7.00;;;2.30;;
3309;SDS011;1667;53.238;10.394;2023-06-14T20:50:43;4.10;;;2.53;;
3309;SDS011;1667;53.238;10.394;2023-06-14T20:55:41;2.43;;;2.20;;
3309;SDS011;1667;53.238;10.394;2023-06-14T21:00:43;2.70;;;2.10;;
3309;SDS011;1667;53.238;10.394;2023-06-14T21:05:42;6.93;;;2.90;;
3309;SDS011;1667;53.238;10.394;2023-06-14T21:10:43;3.53;;;2.13;;
3309;SDS011;1667;53.238;10.394;2023-06-14T21:15:42;3.17;;;1.97;;
3309;SDS011;1667;53.238;10.394;2023-06-14T21:20:41;4.50;;;2.30;;
3309;SDS011;1667;53.238;10.394;2023-06-14T21:25:40;3.80;;;2.20;;
3309;SDS011;1667;53.238;10.394;2023-06-14T21:30:40;3.13;;;2.43;;
3309;SDS011;1667;53.238;10.394;2023-06-14T21:35:39;5.40;;;2.50;;
3309;SDS011;1667;53.238;10.394;2023-06-14T21:40:37;2.40;;;2.17;;
3309;SDS011;1667;53.238;10.394;2023-06-14T21:45:37;4.10;;;2.60;;
3309;SDS011;1667;53.238;10.394;2023-06-14T21:50:38;3.53;;;2.40;;
3309;SDS011;1667;53.238;10.394;2023-06-14T21:55:37;3.70;;;2.60;;
3309;SDS011;1667;53.238;10.394;2023-06-14T22:00:36;3.70;;;3.17;;
3309;SDS011;1667;53.238;10.394;2023-06-14T22:05:35;4.83;;;2.57;;
3309;SDS011;1667;53.238;10.394;2023-06-14T22:10:34;2.83;;;2.40;;
3309;SDS011;1667;53.238;10.394;2023-06-14T22:15:34;2.63;;;2.30;;
3309;SDS011;1667;53.238;10.394;2023-06-14T22:20:32;3.00;;;2.70;;
3309;SDS011;1667;53.238;10.394;2023-06-14T22:25:32;4.57;;;2.40;;
3309;SDS011;1667;53.238;10.394;2023-06-14T22:30:31;2.50;;;2.30;;
3309;SDS011;1667;53.238;10.394;2023-06-14T22:35:33;3.93;;;2.67;;
3309;SDS011;1667;53.238;10.394;2023-06-14T22:40:33;5.50;;;2.90;;
3309;SDS011;1667;53.238;10.394;2023-06-14T22:45:31;3.20;;;2.67;;
3309;SDS011;1667;53.238;10.394;2023-06-14T22:50:33;3.20;;;2.50;;
3309;SDS011;1667;53.238;10.394;2023-06-14T22:55:32;4.00;;;2.77;;
3309;SDS011;1667;53.238;10.394;2023-06-14T23:00:31;4.23;;;2.83;;
3309;SDS011;1667;53.238;10.394;2023-06-14T23:05:30;2.57;;;2.37;;
3309;SDS011;1667;53.238;10.394;2023-06-14T23:10:28;4.57;;;2.90;;
3309;SDS011;1667;53.238;10.394;2023-06-14T23:15:28;4.27;;;2.50;;
3309;SDS011;1667;53.238;10.394;2023-06-14T23:20:27;2.80;;;2.60;;
3309;SDS011;1667;53.238;10.394;2023-06-14T23:25:25;3.20;;;2.90;;
3309;SDS011;1667;53.238;10.394;2023-06-14T23:30:24;4.40;;;4.00;;
3309;SDS011;1667;53.238;10.394;2023-06-14T23:35:24;5.93;;;2.77;;
3309;SDS011;1667;53.238;10.394;2023-06-14T23:40:22;3.20;;;2.83;;
3309;SDS011;1667;53.238;10.394;2023-06-14T23:45:22;3.63;;;2.83;;
3309;SDS011;1667;53.238;10.394;2023-06-14T23:50:21;3.17;;;2.60;;
3309;SDS011;1667;53.238;10.394;2023-06-14T23:55:21;4.33;;;2.23;;
